Résultats : Les foulées du Père Noël 2016 Les foulées du Père Noël 19 KM

Les derniers résultats

Les foulées du Père Noël 2016 Les foulées du Père Noël 19 KM

/ trier par sexe

Tous M F

/ trier par catégorie

Classement Prénom, nom Catégorie Sexe Club Temps Classement par genre Classement par catégorie
1 Michael PLUYAUD SE M TEAM ENDURANCE SHOP 01:16:41.53 1 1
2 William LEVEQUE SE M PERIGUEUX RUNNING 01:18:50.00 2 2
3 Félix PRINGAULT SE M PERIGUEUX RUNNING 01:19:13.00 3 3
4 Pascal LE PEMP V2 M NL24 01:19:20.00 4 1
5 François LE BIHAN SE M ESPRIT TRAIL CHANTERAC 01:20:57.11 5 4
6 VINCENT GUILLOUT V1 M DECATHLON BOULAZAC 01:21:00.00 6 1
7 Marc SERRERO V2 M VTT MONTAGRIER 01:22:55.65 7 2
8 Antoine MONDONNET SE M NL24 01:25:34.87 8 5
9 Thierry CHEYRAL V2 M VELO SILEX 01:26:00.00 9 3
10 Alban DECLERCK SE M PAMPELUNE TEAM TRAIL 01:26:47.53 10 6
11 Christelle LAZARD SE F NL24 01:26:57.93 1 1
12 Jean-philippe COSTA V1 M ASPTT PERIGUEUX 01:27:51.00 11 2
13 JULIEN TOUAT SE M 01:28:00.00 12 7
14 Thomas PUJOL SE M 01:29:40.00 13 8
15 Bastien VERGNAUD SE M PERIGUEUX RUNNING 01:30:22.62 14 9
16 Vincent LIVERTOUT V1 M 01:30:45.63 15 3
17 Marine VIGIER SE F PERIGUEUX RUNNING 01:31:34.00 2 2
18 Yohan POIRIER V1 M NL24 01:32:35.55 16 4
19 Gilles ARNAUD V2 M NONTRON 01:32:41.48 17 4
20 Jacques DEBIOSSAT V2 M NL24 01:32:53.36 18 5
21 David CLEMONT V1 M NL24 01:33:19.67 19 5
22 Gérard RACINNE V3 M NL 19 01:34:14.41 20 1
23 Vincent MOLL SE M 01:34:25.48 21 10
24 Anthony FILET SE M NL 24 01:34:38.42 22 11
25 Jérôme WARGNIER V1 M VTT MONTAGRIER SL 01:34:46.37 23 6
26 Jean-françois DUBOIS V2 M ASPTT PERIGUEUX 01:34:56.34 24 6
27 Vincent BEVILACQUA SE M ESPRIT TRAIL CHANTERAC 01:35:05.98 25 12
28 Celine KOWAL SE F NL 24 01:35:28.61 3 3
29 Jean philippe CIREZ V2 M COCC ATHLETISME 01:35:44.49 26 7
30 Nicolas GUALANDI SE M NL24 01:36:19.56 27 13
31 Sébastien MOUSNIER SE M RAYON VERT VTT 01:36:41.63 28 14
32 Marcel MURGUET V2 M NL24 01:38:33.97 29 8
33 Jphilippe ENCARNACAO V1 M RAID'OC 01:38:36.04 30 7
34 Fabrice TISSANDIE V1 M ESCA SAINT MEDARD DE MUSSIDAN 01:38:51.84 31 8
35 Nicolas PAILLE SE M NL16 01:39:03.98 32 15
36 Dominique DELIS V2 M NL24 01:39:25.17 33 9
37 Didier VINCENT V2 M 24650 CHANCELADE 01:39:32.92 34 10
38 Olivier LACOMBE SE M ASPTT PERIGUEUX 01:39:40.69 35 16
39 Alexandre MAZEAU SE M NL24 01:39:48.08 36 17
40 Bruno MONTORIOL V1 M NL24 01:40:03.40 37 9
41 Aymeric POUFFET SE M NL24 01:41:01.47 38 18
42 Lionel VINCENT V1 M NL24 01:41:08.42 39 10
43 Theo MOUSSEAU JU M NL24 01:41:40.95 40 1
44 Samir SELLALI SE M NL 01:42:46.64 41 19
45 Cyril ALLEGRIER SE M 01:43:10.40 42 20
46 Clara BERNEGOUE ES F NL24 01:43:11.67 4 1
47 Frédéric ROUCHIER V1 M AL ETOILE SAINT ASTIER 01:43:15.96 43 11
48 Pierrick MONTET V1 M NL 24 01:43:26.10 44 12
49 Pierre Dominique DUROT SE M 01:43:28.41 45 21
50 Patrice BOYER V1 M COCC ATHLETISME 01:43:39.33 46 13
51 Laurent TRACARD V2 M 01:44:26.89 47 11
52 Cyril AGOSTINI V1 M 01:45:06.15 48 14
53 Stéphane DISTINGUIN V1 M CA PERIGUEUX TRIATHLON 01:45:09.05 49 15
54 Stephane CARO V1 M 01:45:12.84 50 16
55 Agnès DISIER V2 F ATHLETIQUE SAINT PANTALEON 01:45:24.49 5 1
56 Robert LEACH V3 M NL 24 01:45:25.83 51 2
57 Guillaume CARREAU SE M NL24 01:46:06.86 52 22
58 Sebastien COCAULT V1 M NL 24 01:46:59.11 53 17
59 Jean-luc VALLIER V1 M COCC ATHLETISME 01:47:56.55 54 12
60 Nicolas GIUDICI V1 M 24700 MONTPON 01:47:58.09 55 18
61 David LAGREZE V1 M NL24 01:48:03.23 56 19
62 Thierry MERLET V2 M VTT MONTAGRIER SPORTS LOISIRS 01:48:11.74 57 13
63 Claude BIENNARD V2 M TEAM BURON DU COL 01:48:23.34 58 14
64 Thierry BRUGEASSOU V1 M NL24 01:48:25.43 59 20
65 Christine FORGERON V1 F NC 01:48:30.19 6 1
66 José IBORRA V2 M NL 24 01:48:37.72 60 15
67 Steven HUET SE M NL24 01:48:54.27 61 23
68 Jerome DOUCET SE M 24460 EYVIRAT 01:49:20.20 62 24
69 Christophe LASSALLE V1 M NL24 01:50:19.82 63 21
70 Thierry PUYBONNIEUX V2 M COCC ATHLETISME 01:50:21.68 64 16
71 Fabien CAZENAVE SE M NL24 01:50:24.32 65 25
72 Emilie DAUBISSE SE F FIRST ROUND 01:50:26.81 7 4
73 CORINNE NARDOU V2 F BURON DU COL 01:50:54.48 8 2
74 Jean francois NARDOU V2 M LE BURON DU COL 01:50:54.89 66 17
75 Nicolas LEMPEREUR V1 M VTT MONTAGRIER SPORTS LOISIRS 01:51:01.17 67 22
76 Charly MENELEC V2 M NL 24 01:51:02.42 68 18
77 Eric ITEN V2 M ST ASTIER TRIATHLON 01:51:04.79 69 19
78 Nicolas MAZEAU SE M VTT MONTAGRIER SPORTS LOISIRS 01:51:30.58 70 26
79 Jacques GAILLET V3 M PERIGUEUX RUNNING 01:51:31.75 71 3
80 David LAFFOREST V1 M 24310 BRANTOME 01:51:33.57 72 23
81 Valerie GUY V2 F 01:51:47.31 9 3
82 Loic LIMOUSIN V1 M ESPRIT TRAIL CHANTERAC 01:52:22.37 73 24
83 Fabien GLANDUS V1 M BRANTOME RUN SESSION 01:53:25.38 74 25
84 Eric DOMINGUEZ V2 M 01:53:26.54 75 20
85 Simon PREVOT V3 M USMA MARMANDE 01:53:29.04 76 4
86 Augustin AKA V1 M Progression Zéro 01:53:39.08 77 26
87 Hervé PEYTOUREAU V1 M AL VTT SAINT ASTIER 01:54:08.82 78 27
88 Bruno KERSUAL V2 M NL 24 01:56:32.24 79 21
89 GUYLAINE MAGUER SE F 01:56:45.69 10 5
90 Guillaume VEDEAU SE M Progression Zéro 01:57:31.02 80 27
91 Thierry DELAGE V1 M NL24 01:58:02.53 81 28
92 Cécile GOURINCHAS V2 F ESPRIT TRAIL CHANTERAC 01:58:04.71 11 4
93 Stéphane LANDIECH V1 M 24350 TOCANE ST APRE 01:58:59.24 82 29
94 Patricia CHERAVOLA V2 F SANS BORNE DU DIABLE 01:59:43.35 12 5
95 Fabienne MERLHIOT V1 F BURON DU COL 02:00:20.24 13 2
96 Yannick MERLHIOT V1 M BURON DU COL 02:00:22.04 83 30
97 Eric JAMAIS V2 M NL 24 02:00:24.00 84 22
98 Jean-jacques RESTOUEIX V3 M NL24 02:00:25.33 85 5
99 Fatima DE JESUS BAROFIA V1 F PERIGUEUX RUNNING 02:01:57.10 14 3
100 Marlene TAKACS SE F CE FROMARSAC 02:02:05.59 15 6
101 Mathieu RIGAUX SE M A2 RUNNING 02:02:22.59 86 28
102 Yoann DAGORNE SE M 24000 PERIGUEUX 02:02:32.32 87 29
103 Olivier LELONG SE M NL33 02:02:58.21 88 30
104 Gwenaël DAGORNE SE M NL24 02:06:37.19 89 31
105 Alain COUDERC V3 M PNA SARLAT 02:10:44.32 90 6
106 Jacques DELALOUBIE V4 M NL24 02:10:45.68 91 1
107 Yvette BRETOU V2 F NL24 02:19:28.97 16 6
108 Emilie TEXIER SE F Progression Zéro 02:22:26.41 17 7
109 Thierry PLEDRAN V1 M Progression Zéro 02:22:28.17 92 31
Back to Top